Amber, Washington
Current Conditions -  °F | °C
As of 9:58 PM on Saturday 25 Oct 2014 (Local Time) from KSKA Reporting Station
Scattered Clouds Scattered Clouds  
Wind Chill: 55°   Ceiling: Unl
Heat Index: 55°   Visibility: 10mi
Dew Point: 43°   Wind: 28mph
Humidity: 66%   Direction: 200°SSW
Pressure: 29.54"   Gusts: 37mph
Location:  47.411°N, 117.628°W
Report Text: KSKA 260458Z AUTO 20024G32KT 10SM FEW075 SCT110 SCT130 13/06 A2954 RMK AO2 PK WND 21038/54 SLP005 P0001 T01260063 21029
Loading
Personal Weather Stations






























Interactive Weather Map
Tropical Storm Tracking
New forecast layout! Learn more

10-Day Weather Forecast

Advertisements
Track Severe Weather on mobile